createdAt,value
2022-11-06T00:00:40.905Z,9.80
2022-11-06T00:06:06.518Z,11.10
2022-11-06T00:11:54.874Z,11.37
2022-11-06T00:30:41.584Z,9.90
2022-11-06T05:34:38.058Z,6.67
2022-11-06T05:40:19.496Z,8.03
2022-11-06T05:45:22.871Z,8.60
2022-11-06T05:50:26.287Z,8.90
2022-11-06T05:55:29.658Z,9.53
2022-11-06T06:00:33.005Z,9.13
2022-11-06T06:05:38.791Z,9.47
2022-11-06T06:10:43.083Z,8.67
2022-11-06T06:15:46.624Z,10.00
2022-11-06T06:20:50.041Z,10.37
2022-11-06T06:25:53.428Z,10.30
2022-11-06T06:31:01.282Z,12.03
2022-11-06T06:36:07.410Z,11.40
2022-11-06T06:41:11.013Z,11.67
2022-11-06T06:46:14.313Z,12.10
2022-11-06T06:51:23.562Z,12.07
2022-11-06T06:56:27.464Z,11.87
2022-11-06T07:01:31.104Z,12.70
2022-11-06T07:06:35.121Z,12.27
2022-11-06T07:11:38.371Z,12.13
2022-11-06T07:16:42.279Z,13.23
2022-11-06T07:21:46.429Z,13.67
2022-11-06T07:26:50.405Z,14.23
2022-11-06T07:31:54.361Z,15.67
2022-11-06T07:36:58.228Z,13.27
2022-11-06T07:42:01.780Z,11.23
2022-11-06T07:47:04.886Z,12.97
2022-11-06T07:52:07.693Z,9.10
2022-11-06T07:57:10.515Z,8.13
2022-11-06T08:02:58.211Z,9.47
2022-11-06T08:08:01.109Z,9.33
2022-11-06T08:13:04.581Z,9.30
2022-11-06T08:18:08.601Z,9.57
2022-11-06T08:23:13.130Z,10.73
2022-11-06T08:28:16.824Z,11.07
2022-11-06T08:33:21.644Z,12.20
2022-11-06T08:38:25.004Z,9.47
2022-11-06T08:43:28.213Z,10.43
2022-11-06T08:48:31.676Z,10.43
2022-11-06T08:53:35.270Z,9.70
2022-11-06T08:58:38.101Z,10.37
2022-11-06T09:03:41.498Z,10.33
2022-11-06T09:08:44.680Z,10.77
2022-11-06T09:13:48.142Z,10.93
2022-11-06T09:18:52.086Z,8.83
2022-11-06T09:23:55.464Z,8.67
2022-11-06T09:28:58.877Z,9.20
2022-11-06T09:34:02.236Z,9.17
2022-11-06T09:39:05.551Z,9.50
2022-11-06T09:44:08.821Z,8.87
2022-11-06T09:49:35.247Z,8.93
2022-11-06T09:54:53.407Z,8.80
2022-11-06T10:00:03.159Z,9.87
2022-11-06T10:05:22.015Z,8.77
2022-11-06T10:10:50.667Z,8.13
2022-11-06T10:16:17.579Z,8.33
2022-11-06T10:21:30.927Z,6.13
2022-11-06T10:26:36.369Z,7.13
2022-11-06T10:32:04.520Z,6.47
2022-11-06T10:37:33.200Z,6.93
2022-11-06T10:42:41.440Z,8.03
2022-11-06T10:47:59.462Z,7.07
2022-11-06T10:53:11.713Z,6.07
2022-11-06T10:58:17.742Z,5.70
2022-11-06T11:03:34.793Z,4.77
2022-11-06T11:08:42.393Z,4.73
2022-11-06T11:13:48.977Z,6.33
2022-11-06T11:18:52.812Z,7.03
2022-11-06T11:24:05.941Z,5.10
2022-11-06T11:29:30.964Z,5.73
2022-11-06T11:34:38.100Z,4.43
2022-11-06T11:39:48.679Z,3.77
2022-11-06T11:45:09.973Z,4.10
2022-11-06T11:50:21.939Z,4.30
2022-11-06T11:55:28.419Z,4.23
2022-11-06T12:00:31.747Z,3.47
2022-11-06T12:05:39.940Z,4.17
2022-11-06T12:10:45.726Z,3.43
2022-11-06T12:15:59.645Z,3.57
2022-11-06T12:21:22.441Z,3.30
2022-11-06T12:26:58.489Z,3.63
2022-11-06T12:32:42.544Z,2.90
2022-11-06T12:38:11.524Z,3.20
2022-11-06T12:43:26.055Z,2.90
2022-11-06T12:48:57.311Z,2.07
2022-11-06T12:54:37.896Z,2.30
2022-11-06T12:59:50.965Z,2.43
2022-11-06T13:05:14.312Z,2.50
2022-11-06T13:10:32.400Z,3.00
2022-11-06T13:15:49.233Z,2.10
2022-11-06T13:20:58.530Z,2.30
2022-11-06T13:26:17.310Z,1.80
2022-11-06T13:31:21.992Z,1.93
2022-11-06T13:36:26.700Z,1.80
2022-11-06T13:41:31.341Z,2.40
2022-11-06T13:47:10.241Z,2.80
2022-11-06T13:52:39.418Z,4.87
2022-11-06T13:57:58.026Z,4.20
2022-11-06T14:03:15.705Z,3.37
2022-11-06T14:08:27.583Z,5.70
2022-11-06T14:13:33.998Z,5.13
2022-11-06T14:18:37.671Z,4.37
2022-11-06T14:23:55.189Z,5.27
2022-11-06T14:29:29.039Z,5.90
2022-11-06T14:34:34.393Z,6.10
2022-11-06T14:39:57.746Z,6.27
2022-11-06T14:45:08.933Z,6.13
2022-11-06T14:50:38.590Z,6.50
2022-11-06T14:55:46.229Z,8.20
2022-11-06T15:00:53.932Z,8.47
2022-11-06T15:06:20.048Z,8.07
2022-11-06T15:11:32.672Z,8.07
2022-11-06T15:16:42.373Z,6.57
2022-11-06T15:22:03.796Z,6.07
2022-11-06T15:27:17.354Z,5.20
2022-11-06T15:32:25.658Z,5.80
2022-11-06T15:37:35.064Z,4.80
2022-11-06T15:42:38.391Z,4.70
2022-11-06T15:47:41.904Z,6.67
2022-11-06T15:52:46.479Z,9.23
2022-11-06T15:57:49.346Z,8.40
2022-11-06T16:02:57.085Z,11.60
2022-11-06T16:08:03.764Z,12.77
2022-11-06T16:13:07.477Z,11.00
2022-11-06T16:18:35.414Z,11.47
2022-11-06T16:23:42.228Z,13.87
2022-11-06T16:28:56.536Z,14.13
2022-11-06T16:34:05.193Z,14.53
2022-11-06T16:39:48.272Z,17.53
2022-11-06T16:45:01.571Z,15.37
2022-11-06T16:50:44.684Z,12.93
2022-11-06T16:56:08.057Z,9.53
2022-11-06T17:01:15.767Z,9.30
2022-11-06T17:06:25.094Z,10.70
2022-11-06T17:11:28.340Z,10.73
2022-11-06T17:16:31.540Z,11.33
2022-11-06T17:21:34.782Z,11.50
2022-11-06T17:26:43.932Z,12.00
2022-11-06T17:31:47.131Z,12.17
2022-11-06T17:36:50.338Z,12.30
2022-11-06T17:41:54.673Z,23.80
2022-11-06T17:46:57.786Z,29.60
2022-11-06T17:52:01.078Z,31.73
2022-11-06T17:57:06.213Z,49.73
2022-11-06T18:02:54.937Z,17.73
2022-11-06T18:08:02.725Z,14.47
2022-11-06T18:13:05.930Z,13.10
2022-11-06T18:18:08.724Z,13.47
2022-11-06T18:23:12.555Z,14.13
2022-11-06T18:28:16.073Z,15.40
2022-11-06T18:33:19.784Z,13.93
2022-11-06T18:38:22.980Z,16.43
2022-11-06T18:43:26.363Z,16.07
2022-11-06T18:48:30.648Z,14.10
2022-11-06T18:53:33.865Z,15.13
2022-11-06T18:58:37.044Z,16.53
2022-11-06T19:03:41.261Z,14.87
2022-11-06T19:08:45.753Z,15.73
2022-11-06T19:13:49.456Z,15.13
2022-11-06T19:24:08.843Z,18.00
2022-11-06T19:29:19.530Z,17.93
2022-11-06T19:34:28.644Z,17.40
2022-11-06T19:39:37.064Z,20.63
2022-11-06T19:44:40.390Z,20.87
2022-11-06T19:49:46.555Z,20.77
2022-11-06T19:54:49.816Z,19.50
2022-11-06T19:59:53.057Z,17.23
2022-11-06T20:04:58.639Z,18.20
2022-11-06T20:10:03.026Z,17.87
2022-11-06T20:15:06.828Z,18.10
2022-11-06T20:20:11.678Z,17.13
2022-11-06T20:25:15.085Z,15.87
2022-11-06T20:30:19.270Z,14.77
2022-11-06T20:35:23.591Z,13.03
2022-11-06T20:40:31.668Z,12.23
2022-11-06T20:45:37.972Z,12.53
2022-11-06T20:50:41.332Z,13.37
2022-11-06T20:55:48.674Z,12.83
2022-11-06T21:00:51.928Z,12.23
2022-11-06T21:06:05.472Z,11.70
2022-11-06T21:11:19.588Z,11.47
2022-11-06T21:16:32.564Z,11.37
2022-11-06T21:21:38.843Z,10.93
2022-11-06T21:26:43.881Z,11.33
2022-11-06T21:31:49.146Z,11.63
2022-11-06T21:36:52.639Z,12.03
2022-11-06T21:41:55.735Z,12.40
2022-11-06T21:46:58.543Z,11.90
2022-11-06T21:52:25.078Z,13.47
2022-11-06T21:57:31.206Z,11.37
2022-11-06T22:02:34.524Z,11.27
2022-11-06T22:07:37.615Z,10.93
2022-11-06T22:12:40.894Z,11.07
2022-11-06T22:17:44.048Z,11.00
2022-11-06T22:22:47.611Z,11.30
2022-11-06T22:27:50.849Z,11.83
2022-11-06T22:32:54.176Z,10.83
2022-11-06T22:37:57.223Z,11.30
2022-11-06T22:43:00.065Z,10.60
2022-11-06T22:48:03.094Z,10.93
2022-11-06T22:53:09.431Z,10.97
2022-11-06T22:58:15.186Z,10.77
2022-11-06T23:03:19.187Z,10.40
2022-11-06T23:08:22.421Z,11.13
2022-11-06T23:13:26.414Z,10.33
2022-11-06T23:18:29.412Z,10.67
2022-11-06T23:23:33.371Z,11.07
2022-11-06T23:28:36.412Z,10.90
2022-11-06T23:33:39.546Z,10.60
2022-11-06T23:38:43.568Z,11.60
2022-11-06T23:43:51.343Z,12.37
2022-11-06T23:48:54.488Z,12.33
2022-11-06T23:53:57.525Z,11.60
2022-11-06T23:59:00.443Z,11.07
